Terminal Aerodrome Forecast
Issued by NWS

Home | Current Version | Previous Version | Graphics & Text | Print | Product List | Glossary On
Versions: 1 2 3 4 5 6 7 8 9 10 11 12 13 14 15 16 17
027
FTUS43 KMPX 030903 AAB
TAFRNH
TAF AMD
KRNH 030903Z 0309/0406 01015G23KT 6SM -SN BR SCT015 OVC050
      TEMPO 0309/0312 2SM -SN BLSN OVC020
     FM031200 34018G28KT 4SM BLSN OVC025
     FM031800 32016G24KT 6SM BLSN BKN025
     FM032100 31014G22KT P6SM SCT025
     FM040000 28005KT P6SM BKN250=

USA.gov is the U.S. government's official web portal to all federal, state and local government web resources and services.